createdAt,value
2019-01-05T00:00:28.684Z,10.70
2019-01-05T00:03:16.089Z,9.40
2019-01-05T00:06:19.946Z,10.40
2019-01-05T00:09:07.325Z,10.27
2019-01-05T00:12:08.469Z,10.13
2019-01-05T00:15:04.049Z,10.50
2019-01-05T00:17:59.645Z,8.93
2019-01-05T00:20:42.017Z,9.93
2019-01-05T00:23:49.748Z,9.03
2019-01-05T00:26:40.899Z,8.13
2019-01-05T00:29:45.272Z,9.57
2019-01-05T00:33:05.004Z,10.53
2019-01-05T00:36:15.525Z,10.87
2019-01-05T00:39:16.963Z,10.50
2019-01-05T00:42:06.850Z,10.47
2019-01-05T00:45:14.407Z,10.13
2019-01-05T00:48:02.301Z,10.73
2019-01-05T00:51:11.594Z,12.15
2019-01-05T00:54:01.135Z,10.30
2019-01-05T00:56:59.009Z,10.10
2019-01-05T01:00:01.108Z,11.13
2019-01-05T01:02:49.028Z,10.57
2019-01-05T01:05:43.847Z,10.50
2019-01-05T01:08:35.645Z,9.97
2019-01-05T01:11:34.891Z,9.27
2019-01-05T01:14:37.075Z,8.57
2019-01-05T01:17:40.982Z,9.60
2019-01-05T01:20:28.967Z,10.13
2019-01-05T01:23:12.828Z,9.87
2019-01-05T01:26:00.654Z,10.87
2019-01-05T01:28:48.432Z,9.70
2019-01-05T01:31:46.571Z,8.93
2019-01-05T01:34:47.945Z,11.73
2019-01-05T01:37:46.481Z,9.30
2019-01-05T01:40:43.535Z,9.57
2019-01-05T01:43:34.440Z,13.53
2019-01-05T01:46:32.601Z,14.70
2019-01-05T01:49:21.541Z,14.57
2019-01-05T01:52:11.134Z,15.20
2019-01-05T01:55:01.307Z,15.70
2019-01-05T01:57:52.049Z,13.67
2019-01-05T02:00:47.623Z,14.10
2019-01-05T02:03:54.451Z,12.80
2019-01-05T02:06:54.100Z,9.80
2019-01-05T02:09:42.340Z,11.30
2019-01-05T02:12:31.256Z,12.07
2019-01-05T02:15:21.404Z,12.47
2019-01-05T02:18:50.775Z,9.93
2019-01-05T02:22:18.737Z,14.07
2019-01-05T02:25:49.442Z,10.10
2019-01-05T02:29:11.236Z,9.90
2019-01-05T02:32:48.104Z,8.77
2019-01-05T02:36:10.799Z,10.30
2019-01-05T02:39:51.488Z,8.30
2019-01-05T02:43:41.849Z,8.20
2019-01-05T02:47:25.224Z,8.23
2019-01-05T02:50:59.981Z,8.80
2019-01-05T02:54:33.593Z,8.27
2019-01-05T02:57:40.097Z,10.23
2019-01-05T03:01:39.572Z,9.37
2019-01-05T03:05:31.612Z,7.30
2019-01-05T03:09:00.810Z,9.43
2019-01-05T03:12:25.467Z,8.93
2019-01-05T03:15:58.402Z,7.63
2019-01-05T03:19:31.091Z,9.07
2019-01-05T03:23:00.987Z,10.77
2019-01-05T03:26:40.094Z,8.03
2019-01-05T03:30:13.851Z,8.10
2019-01-05T03:33:44.170Z,8.20
2019-01-05T03:37:27.202Z,8.83
2019-01-05T03:41:08.922Z,9.23
2019-01-05T03:45:08.485Z,8.80
2019-01-05T03:48:52.193Z,7.80
2019-01-05T03:52:35.005Z,8.10
2019-01-05T03:56:01.357Z,10.27
2019-01-05T03:59:43.131Z,9.67
2019-01-05T04:02:49.608Z,7.13
2019-01-05T04:06:18.914Z,7.20
2019-01-05T04:09:57.245Z,7.67
2019-01-05T04:13:50.808Z,9.67
2019-01-05T04:17:31.802Z,9.53
2019-01-05T04:21:26.770Z,7.83
2019-01-05T04:25:02.661Z,7.90
2019-01-05T04:28:20.471Z,8.53
2019-01-05T04:32:08.224Z,7.20
2019-01-05T04:36:01.287Z,7.70
2019-01-05T04:39:26.333Z,10.23
2019-01-05T04:43:15.303Z,12.15
2019-01-05T04:46:50.728Z,9.07
2019-01-05T04:50:28.548Z,10.97
2019-01-05T04:53:54.622Z,13.77
2019-01-05T04:57:17.333Z,10.20
2019-01-05T05:00:47.258Z,11.90
2019-01-05T05:03:57.869Z,10.97
2019-01-05T05:07:25.717Z,10.73
2019-01-05T05:10:51.404Z,12.83
2019-01-05T05:14:14.398Z,14.93
2019-01-05T05:17:50.389Z,12.67
2019-01-05T05:21:14.206Z,9.63
2019-01-05T05:24:48.356Z,13.10
2019-01-05T05:28:27.999Z,10.87
2019-01-05T05:31:52.595Z,11.73
2019-01-05T05:35:38.457Z,9.93
2019-01-05T05:39:15.023Z,14.98
2019-01-05T05:42:50.826Z,10.20
2019-01-05T05:46:28.243Z,10.50
2019-01-05T05:50:03.654Z,9.17
2019-01-05T05:53:43.556Z,8.63
2019-01-05T05:57:13.601Z,8.93
2019-01-05T06:00:40.128Z,7.70
2019-01-05T06:04:29.211Z,8.27
2019-01-05T06:08:06.642Z,11.22
2019-01-05T06:11:56.888Z,7.57
2019-01-05T06:15:38.087Z,7.50
2019-01-05T06:19:05.929Z,6.83
2019-01-05T06:22:37.963Z,7.63
2019-01-05T06:25:59.803Z,7.87
2019-01-05T06:29:33.122Z,8.17
2019-01-05T06:32:49.996Z,7.23
2019-01-05T06:36:33.280Z,7.30
2019-01-05T06:40:03.604Z,7.50
2019-01-05T06:43:44.501Z,7.13
2019-01-05T06:47:11.264Z,7.40
2019-01-05T06:50:49.559Z,6.97
2019-01-05T06:54:17.874Z,7.43
2019-01-05T06:57:50.117Z,7.40
2019-01-05T07:01:45.409Z,6.57
2019-01-05T07:05:05.535Z,9.13
2019-01-05T07:08:29.412Z,8.80
2019-01-05T07:12:05.033Z,6.60
2019-01-05T07:15:36.155Z,6.97
2019-01-05T07:19:07.783Z,6.53
2019-01-05T07:22:20.463Z,5.97
2019-01-05T07:26:06.920Z,7.70
2019-01-05T07:29:22.883Z,7.30
2019-01-05T07:33:08.651Z,7.33
2019-01-05T07:37:05.367Z,6.47
2019-01-05T07:40:35.286Z,8.07
2019-01-05T07:44:04.703Z,8.83
2019-01-05T07:47:46.926Z,6.50
2019-01-05T07:51:22.174Z,6.73
2019-01-05T07:55:11.047Z,7.23
2019-01-05T07:58:20.074Z,6.03
2019-01-05T08:02:09.168Z,6.60
2019-01-05T08:05:23.093Z,5.40
2019-01-05T08:08:58.355Z,7.30
2019-01-05T08:12:39.872Z,5.93
2019-01-05T08:16:16.782Z,7.10
2019-01-05T08:19:36.606Z,6.10
2019-01-05T08:23:02.835Z,7.57
2019-01-05T08:26:28.114Z,6.43
2019-01-05T08:30:01.013Z,7.23
2019-01-05T08:33:27.715Z,6.47
2019-01-05T08:36:56.857Z,6.10
2019-01-05T08:40:37.195Z,6.53
2019-01-05T08:44:31.549Z,5.97
2019-01-05T08:48:30.830Z,6.53
2019-01-05T08:51:42.127Z,6.03
2019-01-05T08:55:05.549Z,7.07
2019-01-05T08:58:44.932Z,6.37
2019-01-05T09:02:08.697Z,6.67
2019-01-05T09:05:33.073Z,5.57
2019-01-05T09:09:02.908Z,5.30
2019-01-05T09:12:42.295Z,6.60
2019-01-05T09:16:19.165Z,5.70
2019-01-05T09:19:53.191Z,5.73
2019-01-05T09:23:29.554Z,5.23
2019-01-05T09:27:26.926Z,6.03
2019-01-05T09:31:01.544Z,5.80
2019-01-05T09:34:24.369Z,5.17
2019-01-05T09:37:58.689Z,5.23
2019-01-05T09:41:14.085Z,4.27
2019-01-05T09:44:48.533Z,4.73
2019-01-05T09:48:37.322Z,5.90
2019-01-05T09:52:10.246Z,4.90
2019-01-05T09:55:37.250Z,5.47
2019-01-05T09:59:17.486Z,5.00
2019-01-05T10:02:57.016Z,4.50
2019-01-05T10:06:09.725Z,5.00
2019-01-05T10:09:59.271Z,5.37
2019-01-05T10:13:54.674Z,4.60
2019-01-05T10:17:14.995Z,5.43
2019-01-05T10:20:46.028Z,5.00
2019-01-05T10:24:39.080Z,5.33
2019-01-05T10:28:11.129Z,5.40
2019-01-05T10:32:03.715Z,5.20
2019-01-05T10:35:40.717Z,5.73
2019-01-05T10:39:20.979Z,5.43
2019-01-05T10:43:00.348Z,4.87
2019-01-05T10:46:34.815Z,5.23
2019-01-05T10:49:57.572Z,4.77
2019-01-05T10:53:31.832Z,5.17
2019-01-05T10:56:46.572Z,5.17
2019-01-05T11:00:12.246Z,5.03
2019-01-05T11:03:42.053Z,6.40
2019-01-05T11:06:57.401Z,5.07
2019-01-05T11:10:55.867Z,5.50
2019-01-05T11:14:24.158Z,5.53
2019-01-05T11:18:02.961Z,5.07
2019-01-05T11:21:23.672Z,4.90
2019-01-05T11:25:01.345Z,7.03
2019-01-05T11:28:29.088Z,8.07
2019-01-05T11:31:56.705Z,6.67
2019-01-05T11:35:29.805Z,5.20
2019-01-05T11:39:07.005Z,6.07
2019-01-05T11:42:47.701Z,5.60
2019-01-05T11:46:16.109Z,4.83
2019-01-05T11:49:53.037Z,5.27
2019-01-05T11:53:39.039Z,5.50
2019-01-05T11:57:14.063Z,6.03
2019-01-05T12:00:49.767Z,5.00
2019-01-05T12:04:05.651Z,5.30
2019-01-05T12:07:47.378Z,4.93
2019-01-05T12:11:14.679Z,6.73
2019-01-05T12:14:28.323Z,5.87
2019-01-05T12:17:58.556Z,5.17
2019-01-05T12:21:34.913Z,5.53
2019-01-05T12:24:57.321Z,5.13
2019-01-05T12:28:40.441Z,5.67
2019-01-05T12:32:14.050Z,5.50
2019-01-05T12:35:58.328Z,5.37
2019-01-05T12:39:31.641Z,5.30
2019-01-05T12:43:11.188Z,4.73
2019-01-05T12:46:33.622Z,5.60
2019-01-05T12:49:59.892Z,5.33
2019-01-05T12:53:24.762Z,4.90
2019-01-05T12:57:03.092Z,5.73
2019-01-05T13:00:34.357Z,4.63
2019-01-05T13:04:03.143Z,4.93
2019-01-05T13:07:29.800Z,5.47
2019-01-05T13:11:01.813Z,5.10
2019-01-05T13:14:38.764Z,4.67
2019-01-05T13:17:54.656Z,4.63
2019-01-05T13:21:34.776Z,4.77
2019-01-05T13:25:24.298Z,5.30
2019-01-05T13:28:49.132Z,5.93
2019-01-05T13:32:32.251Z,5.27
2019-01-05T13:36:07.822Z,5.47
2019-01-05T13:39:45.388Z,5.17
2019-01-05T13:43:15.543Z,5.07
2019-01-05T13:47:01.166Z,5.00
2019-01-05T13:50:25.222Z,4.90
2019-01-05T13:53:46.417Z,5.40
2019-01-05T13:56:46.644Z,6.33
2019-01-05T13:59:34.174Z,5.10
2019-01-05T14:02:35.243Z,5.40
2019-01-05T14:05:43.019Z,5.27
2019-01-05T14:08:48.000Z,5.33
2019-01-05T14:11:45.602Z,4.90
2019-01-05T14:14:40.194Z,5.53
2019-01-05T14:17:28.996Z,5.47
2019-01-05T14:20:23.778Z,5.10
2019-01-05T14:23:11.716Z,4.50
2019-01-05T14:26:09.496Z,5.10
2019-01-05T14:29:04.771Z,5.20
2019-01-05T14:31:52.527Z,4.83
2019-01-05T14:34:51.755Z,6.93
2019-01-05T14:49:16.401Z,6.60
2019-01-05T14:52:20.261Z,5.47
2019-01-05T14:55:16.682Z,5.50
2019-01-05T14:58:23.809Z,5.87
2019-01-05T15:01:28.033Z,6.07
2019-01-05T15:04:16.696Z,6.97
2019-01-05T15:07:04.306Z,6.37
2019-01-05T15:09:52.997Z,6.50
2019-01-05T15:12:44.627Z,7.23
2019-01-05T15:15:30.688Z,7.37
2019-01-05T15:18:28.600Z,7.63
2019-01-05T15:21:35.572Z,7.73
2019-01-05T15:24:42.752Z,7.13
2019-01-05T15:27:49.613Z,6.43
2019-01-05T15:30:46.868Z,6.67
2019-01-05T15:33:35.331Z,6.67
2019-01-05T15:36:22.888Z,7.57
2019-01-05T15:39:24.066Z,8.13
2019-01-05T15:42:12.784Z,7.23
2019-01-05T15:45:07.849Z,7.17
2019-01-05T15:47:58.027Z,6.40
2019-01-05T15:50:55.727Z,7.17
2019-01-05T15:53:47.211Z,5.90
2019-01-05T15:56:35.945Z,6.47
2019-01-05T15:59:38.313Z,6.63
2019-01-05T16:02:25.710Z,6.83
2019-01-05T16:05:17.230Z,6.53
2019-01-05T16:08:21.033Z,6.97
2019-01-05T16:11:21.865Z,7.63
2019-01-05T16:14:09.969Z,7.27
2019-01-05T16:17:01.684Z,6.63
2019-01-05T16:19:56.186Z,7.43
2019-01-05T16:22:51.067Z,8.17
2019-01-05T16:25:38.318Z,8.07
2019-01-05T16:28:27.136Z,8.53
2019-01-05T16:31:21.728Z,8.87
2019-01-05T16:34:17.767Z,9.63
2019-01-05T16:37:05.109Z,10.43
2019-01-05T16:40:12.626Z,10.90
2019-01-05T16:43:06.449Z,18.53
2019-01-05T16:45:58.295Z,12.00
2019-01-05T16:48:45.445Z,10.47
2019-01-05T16:51:33.058Z,10.70
2019-01-05T16:54:20.382Z,10.47
2019-01-05T16:57:08.013Z,10.57
2019-01-05T16:59:56.666Z,10.63
2019-01-05T17:03:00.638Z,7.57
2019-01-05T17:05:53.647Z,7.17
2019-01-05T17:09:00.393Z,9.43
2019-01-05T17:12:03.923Z,10.30
2019-01-05T17:14:51.450Z,6.93
2019-01-05T17:17:30.954Z,7.07
2019-01-05T17:20:14.430Z,7.80
2019-01-05T17:23:02.198Z,7.70
2019-01-05T17:25:54.476Z,8.47
2019-01-05T17:28:49.936Z,7.03
2019-01-05T17:31:44.873Z,7.93
2019-01-05T17:34:36.204Z,7.27
2019-01-05T17:37:25.214Z,11.43
2019-01-05T17:40:22.717Z,9.97
2019-01-05T17:43:21.845Z,11.77
2019-01-05T17:46:19.947Z,11.20
2019-01-05T17:49:14.864Z,12.33
2019-01-05T17:52:15.810Z,11.60
2019-01-05T17:55:04.685Z,13.60
2019-01-05T17:57:52.252Z,13.93
2019-01-05T18:00:40.778Z,11.83
2019-01-05T18:03:38.121Z,14.80
2019-01-05T18:06:39.343Z,14.60
2019-01-05T18:09:31.282Z,20.73
2019-01-05T18:12:19.122Z,19.00
2019-01-05T18:15:20.042Z,22.30
2019-01-05T18:18:23.969Z,20.37
2019-01-05T18:21:18.622Z,15.17
2019-01-05T18:24:02.594Z,16.83
2019-01-05T18:26:57.773Z,19.87
2019-01-05T18:29:52.749Z,13.90
2019-01-05T18:32:44.251Z,9.00
2019-01-05T18:35:51.602Z,9.60
2019-01-05T18:38:39.117Z,10.40
2019-01-05T18:41:29.007Z,12.97
2019-01-05T18:44:29.909Z,12.90
2019-01-05T18:47:21.233Z,14.43
2019-01-05T18:50:13.706Z,15.17
2019-01-05T18:53:08.639Z,18.03
2019-01-05T18:56:00.400Z,18.93
2019-01-05T18:58:48.530Z,20.50
2019-01-05T19:01:38.977Z,15.97
2019-01-05T19:04:26.684Z,13.43
2019-01-05T19:07:24.391Z,11.57
2019-01-05T19:10:13.446Z,10.93
2019-01-05T19:13:00.756Z,11.00
2019-01-05T19:16:01.504Z,10.60
2019-01-05T19:19:02.130Z,11.93
2019-01-05T19:22:03.125Z,12.53
2019-01-05T19:24:51.853Z,13.20
2019-01-05T19:27:43.719Z,11.43
2019-01-05T19:30:32.394Z,10.57
2019-01-05T19:33:21.219Z,7.93
2019-01-05T19:36:15.914Z,9.27
2019-01-05T19:39:04.713Z,8.57
2019-01-05T19:42:08.609Z,9.63
2019-01-05T19:45:09.297Z,9.73
2019-01-05T19:47:56.546Z,8.93
2019-01-05T19:50:55.406Z,8.97
2019-01-05T19:53:44.281Z,10.60
2019-01-05T19:56:31.865Z,10.23
2019-01-05T19:59:19.429Z,11.00
2019-01-05T20:02:08.141Z,13.40
2019-01-05T20:05:09.879Z,11.60
2019-01-05T20:07:58.554Z,12.90
2019-01-05T20:10:53.319Z,14.40
2019-01-05T20:13:42.025Z,15.13
2019-01-05T20:16:29.604Z,14.07
2019-01-05T20:19:29.836Z,15.20
2019-01-05T20:22:24.417Z,12.80
2019-01-05T20:25:19.253Z,16.83
2019-01-05T20:28:10.952Z,18.47
2019-01-05T20:31:06.043Z,16.23
2019-01-05T20:33:54.731Z,15.67
2019-01-05T20:36:52.787Z,16.93
2019-01-05T20:39:37.545Z,14.07
2019-01-05T20:42:26.230Z,16.60
2019-01-05T20:45:14.956Z,14.73
2019-01-05T20:48:02.425Z,13.57
2019-01-05T20:50:50.917Z,13.23
2019-01-05T20:53:42.984Z,14.93
2019-01-05T20:56:33.629Z,14.77
2019-01-05T20:59:41.665Z,13.43
2019-01-05T21:02:37.825Z,14.30
2019-01-05T21:05:29.835Z,14.03
2019-01-05T21:08:18.697Z,13.67
2019-01-05T21:11:13.508Z,14.43
2019-01-05T21:14:08.277Z,15.57
2019-01-05T21:16:56.957Z,13.23
2019-01-05T21:19:52.859Z,14.13
2019-01-05T21:22:40.697Z,15.30
2019-01-05T21:25:29.810Z,14.10
2019-01-05T21:28:37.006Z,15.20
2019-01-05T21:31:24.674Z,12.80
2019-01-05T21:34:13.235Z,14.73
2019-01-05T21:37:05.934Z,13.10
2019-01-05T21:40:06.866Z,12.43
2019-01-05T21:43:07.471Z,13.10
2019-01-05T21:45:55.073Z,11.87
2019-01-05T21:48:42.365Z,9.63
2019-01-05T21:51:40.867Z,11.90
2019-01-05T21:54:37.198Z,10.67
2019-01-05T21:57:25.033Z,10.73
2019-01-05T22:00:12.582Z,10.73
2019-01-05T22:03:11.931Z,10.60
2019-01-05T22:06:03.486Z,9.30
2019-01-05T22:08:52.493Z,9.43
2019-01-05T22:11:44.140Z,9.17
2019-01-05T22:14:40.740Z,11.63
2019-01-05T22:17:28.456Z,10.77
2019-01-05T22:20:17.798Z,10.53
2019-01-05T22:23:09.063Z,10.40
2019-01-05T22:26:01.033Z,9.23
2019-01-05T22:28:49.760Z,11.00
2019-01-05T22:31:37.423Z,13.23
2019-01-05T22:34:34.951Z,13.43
2019-01-05T22:37:22.218Z,12.50
2019-01-05T22:40:22.881Z,10.37
2019-01-05T22:43:23.651Z,10.13
2019-01-05T22:46:12.320Z,9.83
2019-01-05T22:49:01.127Z,11.10
2019-01-05T22:51:51.977Z,10.03
2019-01-05T22:54:39.346Z,11.90
2019-01-05T22:57:34.054Z,10.30
2019-01-05T23:00:22.730Z,10.80
2019-01-05T23:03:10.156Z,11.67
2019-01-05T23:06:01.708Z,11.80
2019-01-05T23:09:05.741Z,10.43
2019-01-05T23:12:03.957Z,12.03
2019-01-05T23:14:51.416Z,12.57
2019-01-05T23:17:39.399Z,11.67
2019-01-05T23:20:26.517Z,10.70
2019-01-05T23:23:30.346Z,12.47
2019-01-05T23:26:21.565Z,12.00
2019-01-05T23:29:15.024Z,12.07
2019-01-05T23:32:01.698Z,11.93
2019-01-05T23:35:09.385Z,13.57
2019-01-05T23:37:56.775Z,12.33
2019-01-05T23:40:44.653Z,11.97
2019-01-05T23:43:45.738Z,13.20
2019-01-05T23:46:34.458Z,13.63
2019-01-05T23:49:23.171Z,13.30
2019-01-05T23:52:30.253Z,13.40
2019-01-05T23:55:17.939Z,11.73
2019-01-05T23:58:12.397Z,14.80
